createdAt,value
2022-07-29T00:03:23.240Z,23.5
2022-07-29T00:08:54.912Z,23.5
2022-07-29T00:14:26.622Z,23.46
2022-07-29T00:19:58.427Z,23.52
2022-07-29T00:25:30.098Z,23.49
2022-07-29T00:31:01.853Z,23.38
2022-07-29T00:36:37.918Z,23.37
2022-07-29T00:42:09.651Z,22.87
2022-07-29T00:47:41.367Z,23.1
2022-07-29T00:53:13.111Z,23.25
2022-07-29T00:58:44.950Z,23.02
2022-07-29T01:04:16.728Z,23.12
2022-07-29T01:09:48.268Z,23.22
2022-07-29T01:15:20.038Z,23.17
2022-07-29T01:20:51.848Z,23.35
2022-07-29T01:26:23.451Z,23.35
2022-07-29T01:31:58.902Z,23.26
2022-07-29T01:37:33.298Z,23.15
2022-07-29T01:43:05.019Z,23.07
2022-07-29T01:48:36.770Z,23.1
2022-07-29T01:54:08.377Z,23.06
2022-07-29T01:59:40.246Z,23.02
2022-07-29T02:05:11.926Z,23.16
2022-07-29T02:10:43.638Z,23.07
2022-07-29T02:16:15.313Z,23.09
2022-07-29T02:21:47.067Z,22.98
2022-07-29T02:27:18.787Z,22.83
2022-07-29T02:32:50.475Z,22.9
2022-07-29T02:38:28.586Z,22.65
2022-07-29T02:44:00.271Z,22.67
2022-07-29T02:49:31.987Z,22.66
2022-07-29T02:55:03.738Z,22.58
2022-07-29T03:00:35.450Z,22.47
2022-07-29T03:06:07.183Z,22.31
2022-07-29T03:11:41.568Z,22.29
2022-07-29T03:17:10.582Z,22.33
2022-07-29T03:22:42.377Z,22.44
2022-07-29T03:28:14.067Z,22.35
2022-07-29T03:33:45.795Z,22.33
2022-07-29T03:39:21.933Z,22.31
2022-07-29T03:44:53.658Z,22.2
2022-07-29T03:50:25.350Z,22.14
2022-07-29T03:55:57.086Z,22.16
2022-07-29T04:01:28.837Z,22.24
2022-07-29T04:07:01.099Z,22.17
2022-07-29T04:12:32.207Z,22.16
2022-07-29T04:18:04.029Z,22.11
2022-07-29T04:23:35.702Z,22.1
2022-07-29T04:29:07.413Z,22.05
2022-07-29T04:34:39.124Z,22.03
2022-07-29T04:40:17.273Z,22.0
2022-07-29T04:45:49.014Z,22.07
2022-07-29T04:51:20.730Z,22.08
2022-07-29T04:56:52.422Z,22.14
2022-07-29T05:02:24.233Z,22.19
2022-07-29T05:07:56.062Z,22.37
2022-07-29T05:13:27.657Z,22.4
2022-07-29T05:18:59.322Z,22.5
2022-07-29T05:24:31.079Z,22.63
2022-07-29T05:30:02.765Z,22.55
2022-07-29T05:35:34.508Z,22.68
2022-07-29T05:41:10.580Z,22.52
2022-07-29T05:46:42.347Z,22.59
2022-07-29T05:52:14.054Z,22.9
2022-07-29T05:57:45.724Z,22.92
2022-07-29T06:03:17.527Z,22.95
2022-07-29T06:08:49.296Z,23.06
2022-07-29T06:14:20.995Z,23.06
2022-07-29T06:19:52.662Z,23.24
2022-07-29T06:25:24.393Z,23.36
2022-07-29T06:30:56.184Z,23.48
2022-07-29T06:36:27.823Z,23.78
2022-07-29T06:42:03.984Z,24.31
2022-07-29T06:47:35.741Z,24.23
2022-07-29T06:53:07.483Z,24.42
2022-07-29T06:58:39.220Z,24.14
2022-07-29T07:04:11.051Z,24.44
2022-07-29T07:09:42.673Z,24.77
2022-07-29T07:15:14.365Z,24.33
2022-07-29T07:20:46.254Z,25.02
2022-07-29T07:26:17.866Z,24.88
2022-07-29T07:31:49.616Z,24.9
2022-07-29T07:37:21.354Z,25.21
2022-07-29T07:42:57.445Z,25.43
2022-07-29T07:48:29.208Z,25.46
2022-07-29T07:54:00.957Z,25.76
2022-07-29T07:59:32.643Z,25.44
2022-07-29T08:05:04.345Z,25.36
2022-07-29T08:10:36.097Z,25.89
2022-07-29T08:16:08.022Z,25.74
2022-07-29T08:21:39.534Z,26.52
2022-07-29T08:27:27.199Z,26.9
2022-07-29T08:32:53.534Z,26.85
2022-07-29T08:38:14.662Z,26.57
2022-07-29T08:43:50.843Z,27.16
2022-07-29T08:49:22.560Z,26.9
2022-07-29T08:54:54.337Z,27.32
2022-07-29T09:00:26.013Z,27.58
2022-07-29T09:05:57.685Z,27.29
2022-07-29T09:11:29.373Z,27.42
2022-07-29T09:17:01.560Z,27.62
2022-07-29T09:22:32.844Z,28.05
2022-07-29T09:28:04.871Z,27.7
2022-07-29T09:33:36.609Z,27.99
2022-07-29T09:39:08.581Z,27.63
2022-07-29T09:44:44.739Z,28.12
2022-07-29T09:50:16.469Z,28.44
2022-07-29T09:55:48.118Z,28.69
2022-07-29T10:01:19.915Z,28.53
2022-07-29T10:06:51.541Z,28.67
2022-07-29T10:12:23.305Z,27.76
2022-07-29T10:17:55.031Z,27.36
2022-07-29T10:23:26.771Z,27.67
2022-07-29T10:28:58.483Z,27.82
2022-07-29T10:34:30.226Z,27.68
2022-07-29T10:40:02.308Z,27.51
2022-07-29T10:45:40.054Z,27.38
2022-07-29T10:51:12.622Z,27.03
2022-07-29T10:56:44.134Z,27.12
2022-07-29T11:02:35.746Z,27.62
2022-07-29T11:07:46.969Z,27.7
2022-07-29T11:13:18.749Z,27.77
2022-07-29T11:18:50.422Z,27.71
2022-07-29T11:24:28.666Z,27.62
2022-07-29T11:29:53.940Z,27.32
2022-07-29T11:35:36.949Z,26.85
2022-07-29T11:36:27.839Z,26.85
2022-07-29T11:40:57.347Z,27.01
2022-07-29T11:46:33.390Z,26.73
2022-07-29T11:52:05.546Z,26.88
2022-07-29T11:57:37.443Z,27.67
2022-07-29T12:03:08.608Z,27.39
2022-07-29T12:08:40.258Z,27.41
2022-07-29T12:14:12.021Z,27.17
2022-07-29T12:19:43.745Z,27.46
2022-07-29T12:25:32.144Z,27.51
2022-07-29T12:30:47.197Z,26.87
2022-07-29T12:36:18.978Z,26.72
2022-07-29T12:41:50.770Z,26.54
2022-07-29T12:47:26.776Z,26.06
2022-07-29T12:52:58.638Z,26.3
2022-07-29T12:58:30.271Z,26.48
2022-07-29T13:04:02.270Z,26.64
2022-07-29T13:09:33.758Z,26.08
2022-07-29T13:15:05.463Z,25.94
2022-07-29T13:20:37.190Z,26.28
2022-07-29T13:26:08.913Z,26.18
2022-07-29T13:31:40.656Z,25.97
2022-07-29T13:37:12.425Z,26.29
2022-07-29T13:42:44.146Z,26.09
2022-07-29T13:48:22.238Z,26.02
2022-07-29T13:53:53.982Z,26.02
2022-07-29T13:59:25.624Z,26.32
2022-07-29T14:04:57.485Z,26.33
2022-07-29T14:10:29.061Z,26.82
2022-07-29T14:16:00.931Z,26.72
2022-07-29T14:21:32.519Z,26.85
2022-07-29T14:27:04.270Z,26.96
2022-07-29T14:32:36.091Z,27.02
2022-07-29T14:38:07.753Z,27.26
2022-07-29T14:43:39.465Z,27.35
2022-07-29T14:49:15.595Z,27.5
2022-07-29T14:54:47.358Z,27.61
2022-07-29T15:00:19.152Z,27.52
2022-07-29T15:05:50.778Z,27.49
2022-07-29T15:11:22.583Z,27.4
2022-07-29T15:16:54.296Z,27.65
2022-07-29T15:22:25.944Z,27.47
2022-07-29T15:28:01.051Z,27.59
2022-07-29T15:33:29.454Z,27.56
2022-07-29T15:39:01.108Z,27.53
2022-07-29T15:44:33.246Z,27.52
2022-07-29T15:50:09.326Z,27.6
2022-07-29T15:55:41.019Z,27.41
2022-07-29T16:01:12.892Z,27.51
2022-07-29T16:06:44.554Z,27.73
2022-07-29T16:12:16.261Z,27.56
2022-07-29T16:17:48.024Z,27.63
2022-07-29T16:23:19.644Z,27.57
2022-07-29T16:28:51.434Z,27.33
2022-07-29T16:34:23.099Z,27.41
2022-07-29T16:39:54.913Z,27.59
2022-07-29T16:45:26.865Z,27.7
2022-07-29T16:51:04.711Z,27.76
2022-07-29T16:56:36.424Z,27.69
2022-07-29T17:02:08.191Z,27.76
2022-07-29T17:07:39.942Z,27.68
2022-07-29T17:13:11.643Z,27.7
2022-07-29T17:18:43.543Z,27.65
2022-07-29T17:24:15.015Z,27.7
2022-07-29T17:29:46.783Z,27.67
2022-07-29T17:35:18.530Z,27.65
2022-07-29T17:40:50.188Z,27.66
2022-07-29T17:46:22.057Z,27.76
2022-07-29T17:52:01.021Z,27.49
2022-07-29T17:57:31.794Z,27.56
2022-07-29T18:03:03.745Z,27.72
2022-07-29T18:08:35.290Z,27.74
2022-07-29T18:14:06.970Z,27.77
2022-07-29T18:19:38.716Z,27.78
2022-07-29T18:25:10.486Z,27.71
2022-07-29T18:30:42.145Z,27.74
2022-07-29T18:36:13.827Z,27.64
2022-07-29T18:41:49.807Z,27.85
2022-07-29T18:47:17.321Z,27.66
2022-07-29T18:52:53.424Z,27.5
2022-07-29T18:58:25.119Z,27.38
2022-07-29T19:03:56.869Z,27.24
2022-07-29T19:09:28.574Z,27.06
2022-07-29T19:15:00.358Z,26.87
2022-07-29T19:20:32.212Z,26.71
2022-07-29T19:26:03.894Z,26.61
2022-07-29T19:31:35.689Z,26.59
2022-07-29T19:37:07.478Z,26.54
2022-07-29T19:42:39.183Z,26.42
2022-07-29T19:48:10.793Z,26.27
2022-07-29T19:53:46.978Z,26.13
2022-07-29T19:59:18.864Z,25.46
2022-07-29T20:04:50.532Z,25.51
2022-07-29T20:10:22.162Z,25.39
2022-07-29T20:15:54.723Z,24.89
2022-07-29T20:21:26.270Z,25.14
2022-07-29T20:26:58.277Z,25.04
2022-07-29T20:32:29.735Z,24.72
2022-07-29T20:38:01.435Z,24.71
2022-07-29T20:43:35.994Z,24.47
2022-07-29T20:49:04.934Z,24.29
2022-07-29T20:54:41.058Z,24.08
2022-07-29T21:00:12.735Z,23.89
2022-07-29T21:05:44.607Z,23.79
2022-07-29T21:11:16.198Z,23.54
2022-07-29T21:16:47.926Z,23.63
2022-07-29T21:22:19.638Z,23.51
2022-07-29T21:27:51.405Z,23.57
2022-07-29T21:33:23.079Z,23.49
2022-07-29T21:38:54.823Z,23.64
2022-07-29T21:44:26.547Z,23.76
2022-07-29T21:49:58.277Z,23.69
2022-07-29T21:55:34.376Z,23.63
2022-07-29T22:01:06.109Z,23.54
2022-07-29T22:06:37.785Z,23.46
2022-07-29T22:12:09.559Z,23.43
2022-07-29T22:17:41.533Z,23.26
2022-07-29T22:23:12.990Z,23.24
2022-07-29T22:28:44.705Z,23.14
2022-07-29T22:34:16.491Z,23.26
2022-07-29T22:39:48.154Z,23.21
2022-07-29T22:45:19.910Z,23.18
2022-07-29T22:50:51.710Z,23.13
2022-07-29T22:56:27.720Z,22.97
2022-07-29T23:01:59.540Z,22.65
2022-07-29T23:07:31.267Z,22.62
2022-07-29T23:13:02.982Z,22.3
2022-07-29T23:18:34.606Z,22.1
2022-07-29T23:24:06.349Z,22.06
2022-07-29T23:29:38.042Z,21.83
2022-07-29T23:35:09.775Z,21.71
2022-07-29T23:40:41.501Z,21.66
2022-07-29T23:46:13.388Z,21.6
2022-07-29T23:51:44.934Z,21.39
2022-07-29T23:57:21.202Z,21.36
